sensor_id;sensor_type;location;lat;lon;timestamp;pressure;altitude;pressure_sealevel;temperature;humidity
51147;BME280;37207;53.060;18.726;2022-11-23T00:00:06;99942.78;;;0.59;93.20
51147;BME280;37207;53.060;18.726;2022-11-23T00:02:33;99944.33;;;0.59;92.96
51147;BME280;37207;53.060;18.726;2022-11-23T00:05:00;99942.67;;;0.60;93.16
51147;BME280;37207;53.060;18.726;2022-11-23T00:07:27;99948.21;;;0.62;93.19
51147;BME280;37207;53.060;18.726;2022-11-23T00:09:53;99948.73;;;0.63;93.36
51147;BME280;37207;53.060;18.726;2022-11-23T00:12:20;99952.60;;;0.63;93.26
51147;BME280;37207;53.060;18.726;2022-11-23T00:14:47;99949.97;;;0.63;93.23
51147;BME280;37207;53.060;18.726;2022-11-23T00:17:13;99950.42;;;0.64;93.32
51147;BME280;37207;53.060;18.726;2022-11-23T00:19:40;99948.41;;;0.64;93.13
51147;BME280;37207;53.060;18.726;2022-11-23T00:22:06;99954.69;;;0.64;93.27
51147;BME280;37207;53.060;18.726;2022-11-23T00:24:33;99957.08;;;0.64;93.27
51147;BME280;37207;53.060;18.726;2022-11-23T00:27:00;99956.95;;;0.64;93.39
51147;BME280;37207;53.060;18.726;2022-11-23T00:29:26;99960.47;;;0.62;93.31
51147;BME280;37207;53.060;18.726;2022-11-23T00:31:54;99959.01;;;0.62;93.41
51147;BME280;37207;53.060;18.726;2022-11-23T00:34:20;99955.77;;;0.61;93.16
51147;BME280;37207;53.060;18.726;2022-11-23T00:36:47;99954.95;;;0.60;93.22
51147;BME280;37207;53.060;18.726;2022-11-23T00:39:14;99956.05;;;0.60;93.40
51147;BME280;37207;53.060;18.726;2022-11-23T00:41:41;99955.57;;;0.60;93.43
51147;BME280;37207;53.060;18.726;2022-11-23T00:44:07;99956.61;;;0.61;93.77
51147;BME280;37207;53.060;18.726;2022-11-23T00:46:34;99963.02;;;0.63;93.61
51147;BME280;37207;53.060;18.726;2022-11-23T00:49:01;99968.54;;;0.63;93.60
51147;BME280;37207;53.060;18.726;2022-11-23T00:51:30;99970.80;;;0.63;93.37
51147;BME280;37207;53.060;18.726;2022-11-23T00:53:58;99970.92;;;0.61;93.53
51147;BME280;37207;53.060;18.726;2022-11-23T00:56:26;99964.44;;;0.59;93.65
51147;BME280;37207;53.060;18.726;2022-11-23T00:58:55;99964.20;;;0.60;93.79
51147;BME280;37207;53.060;18.726;2022-11-23T01:01:25;99962.09;;;0.60;93.61
51147;BME280;37207;53.060;18.726;2022-11-23T01:03:54;99963.72;;;0.60;93.47
51147;BME280;37207;53.060;18.726;2022-11-23T01:06:22;99965.27;;;0.60;93.71
51147;BME280;37207;53.060;18.726;2022-11-23T01:08:54;99966.98;;;0.60;93.74
51147;BME280;37207;53.060;18.726;2022-11-23T01:11:24;99970.01;;;0.60;93.74
51147;BME280;37207;53.060;18.726;2022-11-23T01:13:51;99966.27;;;0.60;93.95
51147;BME280;37207;53.060;18.726;2022-11-23T01:16:20;99966.17;;;0.61;93.91
51147;BME280;37207;53.060;18.726;2022-11-23T01:18:54;99966.25;;;0.61;93.90
51147;BME280;37207;53.060;18.726;2022-11-23T01:21:23;99962.25;;;0.63;93.77
51147;BME280;37207;53.060;18.726;2022-11-23T01:23:51;99963.93;;;0.64;93.89
51147;BME280;37207;53.060;18.726;2022-11-23T01:26:18;99965.95;;;0.63;93.87
51147;BME280;37207;53.060;18.726;2022-11-23T01:28:44;99970.39;;;0.63;93.97
51147;BME280;37207;53.060;18.726;2022-11-23T01:31:16;99971.36;;;0.64;94.01
51147;BME280;37207;53.060;18.726;2022-11-23T01:33:45;99967.42;;;0.64;93.83
51147;BME280;37207;53.060;18.726;2022-11-23T01:36:14;99962.10;;;0.63;93.85
51147;BME280;37207;53.060;18.726;2022-11-23T01:38:44;99962.88;;;0.62;93.91
51147;BME280;37207;53.060;18.726;2022-11-23T01:41:14;99958.67;;;0.63;93.94
51147;BME280;37207;53.060;18.726;2022-11-23T01:43:42;99959.64;;;0.62;93.78
51147;BME280;37207;53.060;18.726;2022-11-23T01:46:09;99959.22;;;0.60;93.93
51147;BME280;37207;53.060;18.726;2022-11-23T01:48:48;99961.43;;;0.59;93.97
51147;BME280;37207;53.060;18.726;2022-11-23T01:51:36;99958.95;;;0.58;93.99
51147;BME280;37207;53.060;18.726;2022-11-23T01:54:10;99959.89;;;0.58;94.11
51147;BME280;37207;53.060;18.726;2022-11-23T01:56:44;99962.13;;;0.58;94.18
51147;BME280;37207;53.060;18.726;2022-11-23T01:59:15;99960.58;;;0.58;93.97
51147;BME280;37207;53.060;18.726;2022-11-23T02:01:43;99962.42;;;0.60;94.13
51147;BME280;37207;53.060;18.726;2022-11-23T02:04:15;99965.33;;;0.60;94.20
51147;BME280;37207;53.060;18.726;2022-11-23T02:06:45;99965.31;;;0.62;94.29
51147;BME280;37207;53.060;18.726;2022-11-23T02:09:14;99963.97;;;0.62;94.08
51147;BME280;37207;53.060;18.726;2022-11-23T02:11:42;99963.65;;;0.63;93.98
51147;BME280;37207;53.060;18.726;2022-11-23T02:14:11;99961.48;;;0.63;94.12
51147;BME280;37207;53.060;18.726;2022-11-23T02:16:38;99962.17;;;0.63;93.92
51147;BME280;37207;53.060;18.726;2022-11-23T02:22:16;99967.06;;;0.65;94.29
51147;BME280;37207;53.060;18.726;2022-11-23T02:24:48;99963.79;;;0.68;94.12
51147;BME280;37207;53.060;18.726;2022-11-23T02:27:18;99961.27;;;0.69;94.23
51147;BME280;37207;53.060;18.726;2022-11-23T02:29:47;99954.46;;;0.71;94.23
51147;BME280;37207;53.060;18.726;2022-11-23T02:32:20;99956.30;;;0.72;94.06
51147;BME280;37207;53.060;18.726;2022-11-23T02:34:49;99956.38;;;0.72;94.08
51147;BME280;37207;53.060;18.726;2022-11-23T02:37:17;99958.23;;;0.72;94.18
51147;BME280;37207;53.060;18.726;2022-11-23T02:39:47;99959.79;;;0.72;94.00
51147;BME280;37207;53.060;18.726;2022-11-23T02:42:14;99959.62;;;0.73;94.16
51147;BME280;37207;53.060;18.726;2022-11-23T02:47:20;99959.73;;;0.72;94.05
51147;BME280;37207;53.060;18.726;2022-11-23T02:49:48;99966.31;;;0.72;94.18
51147;BME280;37207;53.060;18.726;2022-11-23T02:52:16;99966.52;;;0.73;94.01
51147;BME280;37207;53.060;18.726;2022-11-23T02:54:43;99968.63;;;0.73;94.14
51147;BME280;37207;53.060;18.726;2022-11-23T02:57:10;99964.33;;;0.71;94.11
51147;BME280;37207;53.060;18.726;2022-11-23T02:59:38;99966.92;;;0.70;93.97
51147;BME280;37207;53.060;18.726;2022-11-23T03:02:06;99967.98;;;0.70;94.21
51147;BME280;37207;53.060;18.726;2022-11-23T03:04:35;99968.68;;;0.71;94.22
51147;BME280;37207;53.060;18.726;2022-11-23T03:07:01;99971.54;;;0.72;94.21
51147;BME280;37207;53.060;18.726;2022-11-23T03:09:28;99976.11;;;0.72;94.37
51147;BME280;37207;53.060;18.726;2022-11-23T03:11:55;99976.67;;;0.74;94.23
51147;BME280;37207;53.060;18.726;2022-11-23T03:14:23;99975.67;;;0.76;94.18
51147;BME280;37207;53.060;18.726;2022-11-23T03:16:57;99977.80;;;0.78;94.28
51147;BME280;37207;53.060;18.726;2022-11-23T03:19:25;99973.10;;;0.79;94.28
51147;BME280;37207;53.060;18.726;2022-11-23T03:21:51;99971.71;;;0.79;94.30
51147;BME280;37207;53.060;18.726;2022-11-23T03:24:18;99970.86;;;0.79;94.21
51147;BME280;37207;53.060;18.726;2022-11-23T03:26:45;99972.90;;;0.81;94.19
51147;BME280;37207;53.060;18.726;2022-11-23T03:29:17;99976.92;;;0.82;94.13
51147;BME280;37207;53.060;18.726;2022-11-23T03:31:43;99981.42;;;0.82;94.13
51147;BME280;37207;53.060;18.726;2022-11-23T03:34:12;99981.88;;;0.82;94.18
51147;BME280;37207;53.060;18.726;2022-11-23T03:36:39;99984.88;;;0.83;94.22
51147;BME280;37207;53.060;18.726;2022-11-23T03:39:05;99978.70;;;0.84;94.22
51147;BME280;37207;53.060;18.726;2022-11-23T03:41:51;99978.96;;;0.86;94.35
51147;BME280;37207;53.060;18.726;2022-11-23T03:44:19;99976.27;;;0.87;94.24
51147;BME280;37207;53.060;18.726;2022-11-23T03:46:45;99970.95;;;0.88;94.17
51147;BME280;37207;53.060;18.726;2022-11-23T03:49:12;99970.63;;;0.88;94.21
51147;BME280;37207;53.060;18.726;2022-11-23T03:51:39;99961.84;;;0.89;94.11
51147;BME280;37207;53.060;18.726;2022-11-23T03:54:07;99959.54;;;0.88;94.18
51147;BME280;37207;53.060;18.726;2022-11-23T03:56:34;99962.65;;;0.88;94.16
51147;BME280;37207;53.060;18.726;2022-11-23T03:59:01;99958.92;;;0.87;94.05
51147;BME280;37207;53.060;18.726;2022-11-23T04:01:28;99957.06;;;0.88;94.02
51147;BME280;37207;53.060;18.726;2022-11-23T04:03:59;99953.63;;;0.88;94.29
51147;BME280;37207;53.060;18.726;2022-11-23T04:06:52;99947.40;;;0.89;94.36
51147;BME280;37207;53.060;18.726;2022-11-23T04:09:23;99945.09;;;0.88;94.37
51147;BME280;37207;53.060;18.726;2022-11-23T04:12:05;99941.73;;;0.86;94.17
51147;BME280;37207;53.060;18.726;2022-11-23T04:14:32;99941.20;;;0.86;94.15
51147;BME280;37207;53.060;18.726;2022-11-23T04:16:59;99938.55;;;0.87;94.30
51147;BME280;37207;53.060;18.726;2022-11-23T04:19:28;99936.66;;;0.87;94.17
51147;BME280;37207;53.060;18.726;2022-11-23T04:21:55;99933.84;;;0.86;94.09
51147;BME280;37207;53.060;18.726;2022-11-23T04:24:21;99930.63;;;0.87;94.26
51147;BME280;37207;53.060;18.726;2022-11-23T04:26:49;99937.35;;;0.87;94.38
51147;BME280;37207;53.060;18.726;2022-11-23T04:29:15;99939.27;;;0.88;94.19
51147;BME280;37207;53.060;18.726;2022-11-23T04:31:45;99940.05;;;0.88;94.38
51147;BME280;37207;53.060;18.726;2022-11-23T04:34:17;99940.59;;;0.88;94.20
51147;BME280;37207;53.060;18.726;2022-11-23T04:36:44;99935.80;;;0.89;94.38
51147;BME280;37207;53.060;18.726;2022-11-23T04:39:11;99933.56;;;0.89;94.27
51147;BME280;37207;53.060;18.726;2022-11-23T04:41:49;99934.24;;;0.87;94.26
51147;BME280;37207;53.060;18.726;2022-11-23T04:44:16;99936.91;;;0.87;94.43
51147;BME280;37207;53.060;18.726;2022-11-23T04:46:43;99936.13;;;0.87;94.31
51147;BME280;37207;53.060;18.726;2022-11-23T04:49:12;99937.15;;;0.86;94.29
51147;BME280;37207;53.060;18.726;2022-11-23T04:51:38;99934.16;;;0.86;94.22
51147;BME280;37207;53.060;18.726;2022-11-23T04:54:05;99935.04;;;0.84;94.23
51147;BME280;37207;53.060;18.726;2022-11-23T04:56:36;99934.80;;;0.85;94.37
51147;BME280;37207;53.060;18.726;2022-11-23T04:59:03;99937.16;;;0.84;94.44
51147;BME280;37207;53.060;18.726;2022-11-23T05:01:30;99945.14;;;0.85;94.21
51147;BME280;37207;53.060;18.726;2022-11-23T05:04:18;99943.81;;;0.85;94.29
51147;BME280;37207;53.060;18.726;2022-11-23T05:06:45;99946.58;;;0.86;94.58
51147;BME280;37207;53.060;18.726;2022-11-23T05:09:13;99949.06;;;0.88;94.57
51147;BME280;37207;53.060;18.726;2022-11-23T05:12:02;99948.34;;;0.88;94.33
51147;BME280;37207;53.060;18.726;2022-11-23T05:14:29;99944.60;;;0.89;94.35
51147;BME280;37207;53.060;18.726;2022-11-23T05:16:57;99939.09;;;0.89;94.31
51147;BME280;37207;53.060;18.726;2022-11-23T05:19:24;99942.45;;;0.88;94.43
51147;BME280;37207;53.060;18.726;2022-11-23T05:21:51;99943.66;;;0.89;94.52
51147;BME280;37207;53.060;18.726;2022-11-23T05:24:18;99941.38;;;0.90;94.40
51147;BME280;37207;53.060;18.726;2022-11-23T05:26:55;99941.92;;;0.90;94.27
51147;BME280;37207;53.060;18.726;2022-11-23T05:29:22;99948.04;;;0.91;94.29
51147;BME280;37207;53.060;18.726;2022-11-23T05:31:48;99953.80;;;0.90;94.10
51147;BME280;37207;53.060;18.726;2022-11-23T05:34:15;99954.46;;;0.92;94.16
51147;BME280;37207;53.060;18.726;2022-11-23T05:36:45;99954.13;;;0.92;94.25
51147;BME280;37207;53.060;18.726;2022-11-23T05:39:12;99956.41;;;0.94;94.22
51147;BME280;37207;53.060;18.726;2022-11-23T05:41:39;99955.58;;;0.94;94.08
51147;BME280;37207;53.060;18.726;2022-11-23T05:44:14;99958.88;;;0.95;94.21
51147;BME280;37207;53.060;18.726;2022-11-23T05:46:41;99964.19;;;0.96;94.30
51147;BME280;37207;53.060;18.726;2022-11-23T05:49:08;99964.73;;;0.96;94.31
51147;BME280;37207;53.060;18.726;2022-11-23T05:51:36;99960.19;;;0.95;94.22
51147;BME280;37207;53.060;18.726;2022-11-23T05:54:03;99958.45;;;0.94;94.12
51147;BME280;37207;53.060;18.726;2022-11-23T05:56:43;99956.96;;;0.94;94.19
51147;BME280;37207;53.060;18.726;2022-11-23T05:59:15;99958.81;;;0.94;94.18
51147;BME280;37207;53.060;18.726;2022-11-23T06:01:43;99964.10;;;0.94;94.34
51147;BME280;37207;53.060;18.726;2022-11-23T06:04:12;99967.02;;;0.96;94.43
51147;BME280;37207;53.060;18.726;2022-11-23T06:06:42;99967.91;;;0.97;94.52
51147;BME280;37207;53.060;18.726;2022-11-23T06:09:09;99976.70;;;0.97;94.35
51147;BME280;37207;53.060;18.726;2022-11-23T06:11:37;99977.40;;;0.96;94.42
51147;BME280;37207;53.060;18.726;2022-11-23T06:14:14;99978.09;;;0.96;94.35
51147;BME280;37207;53.060;18.726;2022-11-23T06:16:43;99976.80;;;0.95;94.40
51147;BME280;37207;53.060;18.726;2022-11-23T06:19:33;99974.04;;;0.94;94.45
51147;BME280;37207;53.060;18.726;2022-11-23T06:22:00;99970.27;;;0.93;94.43
51147;BME280;37207;53.060;18.726;2022-11-23T06:24:30;99973.59;;;0.94;94.44
51147;BME280;37207;53.060;18.726;2022-11-23T06:27:26;99970.54;;;0.95;94.60
51147;BME280;37207;53.060;18.726;2022-11-23T06:29:53;99972.74;;;0.96;94.44
51147;BME280;37207;53.060;18.726;2022-11-23T06:32:20;99971.61;;;0.98;94.47
51147;BME280;37207;53.060;18.726;2022-11-23T06:34:47;99974.58;;;0.98;94.30
51147;BME280;37207;53.060;18.726;2022-11-23T06:37:14;99975.68;;;0.97;94.36
51147;BME280;37207;53.060;18.726;2022-11-23T06:39:41;99980.18;;;0.97;94.27
51147;BME280;37207;53.060;18.726;2022-11-23T06:42:08;99985.52;;;0.95;94.25
51147;BME280;37207;53.060;18.726;2022-11-23T06:44:34;99990.77;;;0.93;94.16
51147;BME280;37207;53.060;18.726;2022-11-23T06:47:01;99993.38;;;0.92;94.36
51147;BME280;37207;53.060;18.726;2022-11-23T06:49:28;99995.42;;;0.91;94.28
51147;BME280;37207;53.060;18.726;2022-11-23T06:52:08;99995.91;;;0.90;94.28
51147;BME280;37207;53.060;18.726;2022-11-23T06:54:34;99995.85;;;0.90;94.34
51147;BME280;37207;53.060;18.726;2022-11-23T06:57:01;99995.63;;;0.89;94.41
51147;BME280;37207;53.060;18.726;2022-11-23T06:59:28;99996.57;;;0.92;94.47
51147;BME280;37207;53.060;18.726;2022-11-23T07:01:55;99994.43;;;0.94;94.53
51147;BME280;37207;53.060;18.726;2022-11-23T07:04:22;99994.94;;;0.95;94.52
51147;BME280;37207;53.060;18.726;2022-11-23T07:06:50;99994.34;;;0.96;94.56
51147;BME280;37207;53.060;18.726;2022-11-23T07:09:27;99990.27;;;0.97;94.63
51147;BME280;37207;53.060;18.726;2022-11-23T07:12:14;99990.56;;;0.98;94.51
51147;BME280;37207;53.060;18.726;2022-11-23T07:14:41;99989.56;;;0.98;94.44
51147;BME280;37207;53.060;18.726;2022-11-23T07:17:08;99992.36;;;0.95;94.30
51147;BME280;37207;53.060;18.726;2022-11-23T07:19:35;99991.44;;;0.92;94.30
51147;BME280;37207;53.060;18.726;2022-11-23T07:22:02;99995.98;;;0.90;94.58
51147;BME280;37207;53.060;18.726;2022-11-23T07:24:29;99999.38;;;0.91;94.53
51147;BME280;37207;53.060;18.726;2022-11-23T07:26:56;100003.02;;;0.92;94.56
51147;BME280;37207;53.060;18.726;2022-11-23T07:29:22;100006.73;;;0.92;94.45
51147;BME280;37207;53.060;18.726;2022-11-23T07:31:49;100011.11;;;0.91;94.48
51147;BME280;37207;53.060;18.726;2022-11-23T07:34:16;100014.91;;;0.91;94.45
51147;BME280;37207;53.060;18.726;2022-11-23T07:36:43;100019.38;;;0.93;94.51
51147;BME280;37207;53.060;18.726;2022-11-23T07:39:10;100026.30;;;0.95;94.45
51147;BME280;37207;53.060;18.726;2022-11-23T07:41:36;100027.70;;;0.95;94.53
51147;BME280;37207;53.060;18.726;2022-11-23T07:44:26;100034.43;;;0.94;94.21
51147;BME280;37207;53.060;18.726;2022-11-23T07:46:52;100032.48;;;0.94;94.28
51147;BME280;37207;53.060;18.726;2022-11-23T07:49:19;100031.83;;;0.95;94.33
51147;BME280;37207;53.060;18.726;2022-11-23T07:51:46;100036.98;;;0.94;94.25
51147;BME280;37207;53.060;18.726;2022-11-23T07:54:13;100037.96;;;0.95;94.46
51147;BME280;37207;53.060;18.726;2022-11-23T07:56:39;100041.52;;;0.96;94.56
51147;BME280;37207;53.060;18.726;2022-11-23T07:59:06;100044.36;;;0.97;94.54
51147;BME280;37207;53.060;18.726;2022-11-23T08:01:33;100047.36;;;0.95;94.46
51147;BME280;37207;53.060;18.726;2022-11-23T08:03:59;100046.50;;;0.96;94.57
51147;BME280;37207;53.060;18.726;2022-11-23T08:06:26;100050.24;;;0.98;94.52
51147;BME280;37207;53.060;18.726;2022-11-23T08:08:53;100048.69;;;1.01;94.64
51147;BME280;37207;53.060;18.726;2022-11-23T08:11:21;100046.25;;;1.02;94.70
51147;BME280;37207;53.060;18.726;2022-11-23T08:13:48;100053.22;;;1.05;94.77
51147;BME280;37207;53.060;18.726;2022-11-23T08:16:14;100059.62;;;1.07;94.73
51147;BME280;37207;53.060;18.726;2022-11-23T08:18:41;100063.36;;;1.12;94.83
51147;BME280;37207;53.060;18.726;2022-11-23T08:21:08;100063.56;;;1.16;94.69
51147;BME280;37207;53.060;18.726;2022-11-23T08:23:34;100061.30;;;1.19;94.58
51147;BME280;37207;53.060;18.726;2022-11-23T08:26:02;100057.04;;;1.21;94.56
51147;BME280;37207;53.060;18.726;2022-11-23T08:28:29;100056.08;;;1.22;94.53
51147;BME280;37207;53.060;18.726;2022-11-23T08:30:56;100053.48;;;1.22;94.35
51147;BME280;37207;53.060;18.726;2022-11-23T08:33:23;100052.93;;;1.21;94.21
51147;BME280;37207;53.060;18.726;2022-11-23T08:35:49;100056.52;;;1.20;94.07
51147;BME280;37207;53.060;18.726;2022-11-23T08:38:16;100054.02;;;1.20;94.01
51147;BME280;37207;53.060;18.726;2022-11-23T08:40:43;100053.98;;;1.21;94.15
51147;BME280;37207;53.060;18.726;2022-11-23T08:43:09;100052.80;;;1.24;94.29
51147;BME280;37207;53.060;18.726;2022-11-23T08:45:36;100051.67;;;1.25;94.20
51147;BME280;37207;53.060;18.726;2022-11-23T08:48:03;100056.11;;;1.25;94.15
51147;BME280;37207;53.060;18.726;2022-11-23T08:50:30;100056.46;;;1.27;94.25
51147;BME280;37207;53.060;18.726;2022-11-23T08:52:58;100059.39;;;1.30;94.24
51147;BME280;37207;53.060;18.726;2022-11-23T08:55:26;100060.83;;;1.31;94.15
51147;BME280;37207;53.060;18.726;2022-11-23T08:57:55;100060.00;;;1.33;94.03
51147;BME280;37207;53.060;18.726;2022-11-23T09:00:23;100060.80;;;1.35;94.09
51147;BME280;37207;53.060;18.726;2022-11-23T09:02:50;100058.95;;;1.37;94.05
51147;BME280;37207;53.060;18.726;2022-11-23T09:05:16;100056.30;;;1.37;93.95
51147;BME280;37207;53.060;18.726;2022-11-23T09:07:43;100055.98;;;1.38;93.91
51147;BME280;37207;53.060;18.726;2022-11-23T09:10:10;100061.40;;;1.38;93.96
51147;BME280;37207;53.060;18.726;2022-11-23T09:12:37;100064.14;;;1.39;94.05
51147;BME280;37207;53.060;18.726;2022-11-23T09:15:03;100060.52;;;1.44;94.17
51147;BME280;37207;53.060;18.726;2022-11-23T09:17:31;100058.20;;;1.46;94.01
51147;BME280;37207;53.060;18.726;2022-11-23T09:19:58;100057.08;;;1.47;94.00
51147;BME280;37207;53.060;18.726;2022-11-23T09:22:25;100051.70;;;1.50;94.03
51147;BME280;37207;53.060;18.726;2022-11-23T09:24:52;100055.42;;;1.53;93.99
51147;BME280;37207;53.060;18.726;2022-11-23T09:27:19;100049.02;;;1.54;93.98
51147;BME280;37207;53.060;18.726;2022-11-23T09:29:45;100049.46;;;1.55;94.00
51147;BME280;37207;53.060;18.726;2022-11-23T09:32:12;100053.55;;;1.57;94.08
51147;BME280;37207;53.060;18.726;2022-11-23T09:34:39;100053.09;;;1.60;93.87
51147;BME280;37207;53.060;18.726;2022-11-23T09:37:06;100049.72;;;1.61;93.78
51147;BME280;37207;53.060;18.726;2022-11-23T09:39:32;100048.61;;;1.61;93.79
51147;BME280;37207;53.060;18.726;2022-11-23T09:51:29;100048.98;;;1.62;93.56
51147;BME280;37207;53.060;18.726;2022-11-23T09:53:37;100052.36;;;1.61;93.46
51147;BME280;37207;53.060;18.726;2022-11-23T09:56:15;100043.71;;;1.59;93.34
51147;BME280;37207;53.060;18.726;2022-11-23T09:58:43;100041.70;;;1.58;93.44
51147;BME280;37207;53.060;18.726;2022-11-23T10:01:13;100042.69;;;1.59;93.53
51147;BME280;37207;53.060;18.726;2022-11-23T10:03:42;100043.63;;;1.59;93.43
51147;BME280;37207;53.060;18.726;2022-11-23T10:06:21;100043.63;;;1.59;93.31
51147;BME280;37207;53.060;18.726;2022-11-23T10:09:00;100040.75;;;1.59;93.54
51147;BME280;37207;53.060;18.726;2022-11-23T10:17:16;100022.80;;;1.63;93.60
51147;BME280;37207;53.060;18.726;2022-11-23T10:22:30;100020.58;;;1.62;93.41
51147;BME280;37207;53.060;18.726;2022-11-23T10:25:07;100018.21;;;1.64;93.33
51147;BME280;37207;53.060;18.726;2022-11-23T10:27:38;100018.04;;;1.64;93.28
51147;BME280;37207;53.060;18.726;2022-11-23T10:30:11;100020.45;;;1.64;93.23
51147;BME280;37207;53.060;18.726;2022-11-23T10:32:50;100016.20;;;1.63;93.16
51147;BME280;37207;53.060;18.726;2022-11-23T10:35:32;100012.96;;;1.62;93.13
51147;BME280;37207;53.060;18.726;2022-11-23T10:38:11;100017.62;;;1.60;93.18
51147;BME280;37207;53.060;18.726;2022-11-23T10:40:47;100014.53;;;1.59;93.16
51147;BME280;37207;53.060;18.726;2022-11-23T10:43:20;100013.89;;;1.60;93.24
51147;BME280;37207;53.060;18.726;2022-11-23T10:45:48;100009.11;;;1.61;93.22
51147;BME280;37207;53.060;18.726;2022-11-23T10:48:33;100005.35;;;1.62;93.19
51147;BME280;37207;53.060;18.726;2022-11-23T10:51:22;100004.98;;;1.62;93.17
51147;BME280;37207;53.060;18.726;2022-11-23T10:53:59;99999.17;;;1.60;92.98
51147;BME280;37207;53.060;18.726;2022-11-23T10:56:27;100000.02;;;1.60;93.20
51147;BME280;37207;53.060;18.726;2022-11-23T10:58:54;100000.13;;;1.62;93.24
51147;BME280;37207;53.060;18.726;2022-11-23T11:01:26;99999.30;;;1.64;93.29
51147;BME280;37207;53.060;18.726;2022-11-23T11:04:01;99999.55;;;1.64;93.16
51147;BME280;37207;53.060;18.726;2022-11-23T11:06:31;99999.13;;;1.59;93.01
51147;BME280;37207;53.060;18.726;2022-11-23T11:09:01;99997.10;;;1.57;92.96
51147;BME280;37207;53.060;18.726;2022-11-23T11:11:31;99995.11;;;1.56;93.11
51147;BME280;37207;53.060;18.726;2022-11-23T11:14:13;99994.05;;;1.56;93.18
51147;BME280;37207;53.060;18.726;2022-11-23T11:16:56;99994.09;;;1.55;93.19
51147;BME280;37207;53.060;18.726;2022-11-23T11:19:34;99990.25;;;1.53;93.14
51147;BME280;37207;53.060;18.726;2022-11-23T11:22:03;99987.92;;;1.51;93.19
51147;BME280;37207;53.060;18.726;2022-11-23T11:24:49;99993.17;;;1.49;93.26
51147;BME280;37207;53.060;18.726;2022-11-23T11:27:22;99993.65;;;1.49;93.46
51147;BME280;37207;53.060;18.726;2022-11-23T11:29:50;99992.25;;;1.49;93.35
51147;BME280;37207;53.060;18.726;2022-11-23T11:35:19;99990.04;;;1.50;93.68
51147;BME280;37207;53.060;18.726;2022-11-23T11:37:50;99989.36;;;1.52;93.73
51147;BME280;37207;53.060;18.726;2022-11-23T11:40:33;99990.80;;;1.51;93.66
51147;BME280;37207;53.060;18.726;2022-11-23T11:43:06;99989.91;;;1.47;93.47
51147;BME280;37207;53.060;18.726;2022-11-23T11:45:41;99988.42;;;1.47;93.70
51147;BME280;37207;53.060;18.726;2022-11-23T11:48:22;99985.05;;;1.48;93.80
51147;BME280;37207;53.060;18.726;2022-11-23T11:51:16;99984.58;;;1.48;93.74
51147;BME280;37207;53.060;18.726;2022-11-23T11:54:00;99984.98;;;1.48;93.68
51147;BME280;37207;53.060;18.726;2022-11-23T11:57:51;99983.14;;;1.47;93.53
51147;BME280;37207;53.060;18.726;2022-11-23T11:59:58;99978.93;;;1.47;93.86
51147;BME280;37207;53.060;18.726;2022-11-23T12:08:05;99982.28;;;1.54;93.85
51147;BME280;37207;53.060;18.726;2022-11-23T12:10:45;99976.69;;;1.54;93.84
51147;BME280;37207;53.060;18.726;2022-11-23T12:13:31;99981.10;;;1.57;94.13
51147;BME280;37207;53.060;18.726;2022-11-23T12:29:42;99981.89;;;1.49;93.86
51147;BME280;37207;53.060;18.726;2022-11-23T12:32:24;99980.52;;;1.49;93.61
51147;BME280;37207;53.060;18.726;2022-11-23T12:40:35;99988.48;;;1.47;93.61
51147;BME280;37207;53.060;18.726;2022-11-23T12:43:53;99987.95;;;1.47;93.67
51147;BME280;37207;53.060;18.726;2022-11-23T12:59:54;99987.83;;;1.43;93.74
51147;BME280;37207;53.060;18.726;2022-11-23T13:08:21;99995.76;;;1.49;94.06
51147;BME280;37207;53.060;18.726;2022-11-23T13:21:54;100000.88;;;1.34;93.59
51147;BME280;37207;53.060;18.726;2022-11-23T13:24:31;99998.88;;;1.31;93.56
51147;BME280;37207;53.060;18.726;2022-11-23T13:40:34;100003.86;;;1.23;93.73
51147;BME280;37207;53.060;18.726;2022-11-23T13:45:40;100001.05;;;1.21;93.86
51147;BME280;37207;53.060;18.726;2022-11-23T13:50:36;100002.26;;;1.20;93.76
51147;BME280;37207;53.060;18.726;2022-11-23T13:53:19;100004.29;;;1.20;93.79
51147;BME280;37207;53.060;18.726;2022-11-23T13:55:51;100010.65;;;1.21;93.94
51147;BME280;37207;53.060;18.726;2022-11-23T14:00:55;100014.05;;;1.21;93.92
51147;BME280;37207;53.060;18.726;2022-11-23T14:14:25;100020.70;;;1.22;94.14
51147;BME280;37207;53.060;18.726;2022-11-23T14:28:17;100027.02;;;1.26;93.92
51147;BME280;37207;53.060;18.726;2022-11-23T14:42:54;100027.28;;;1.10;93.43
51147;BME280;37207;53.060;18.726;2022-11-23T14:45:27;100028.98;;;1.07;93.42
51147;BME280;37207;53.060;18.726;2022-11-23T14:47:55;100024.87;;;1.04;93.35
51147;BME280;37207;53.060;18.726;2022-11-23T14:50:27;100033.88;;;1.03;93.43
51147;BME280;37207;53.060;18.726;2022-11-23T14:52:56;100029.15;;;1.02;93.56
51147;BME280;37207;53.060;18.726;2022-11-23T14:55:27;100028.16;;;1.01;93.49
51147;BME280;37207;53.060;18.726;2022-11-23T14:57:57;100030.98;;;1.01;93.48
51147;BME280;37207;53.060;18.726;2022-11-23T15:02:52;100038.75;;;1.01;93.59
51147;BME280;37207;53.060;18.726;2022-11-23T15:05:22;100038.45;;;1.00;93.54
51147;BME280;37207;53.060;18.726;2022-11-23T15:12:52;100050.33;;;1.01;94.01
51147;BME280;37207;53.060;18.726;2022-11-23T15:15:24;100052.46;;;1.02;94.05
51147;BME280;37207;53.060;18.726;2022-11-23T15:17:58;100052.95;;;1.01;93.83
51147;BME280;37207;53.060;18.726;2022-11-23T15:20:40;100051.86;;;1.01;93.98
51147;BME280;37207;53.060;18.726;2022-11-23T15:23:22;100051.61;;;1.04;94.18
51147;BME280;37207;53.060;18.726;2022-11-23T15:25:54;100051.67;;;1.04;94.07
51147;BME280;37207;53.060;18.726;2022-11-23T15:28:25;100051.74;;;1.05;94.10
51147;BME280;37207;53.060;18.726;2022-11-23T15:30:53;100051.85;;;1.07;94.10
51147;BME280;37207;53.060;18.726;2022-11-23T15:33:21;100054.73;;;1.09;94.27
51147;BME280;37207;53.060;18.726;2022-11-23T15:35:50;100055.38;;;1.11;94.08
51147;BME280;37207;53.060;18.726;2022-11-23T15:38:19;100057.23;;;1.11;94.08